LRBO - airport unknown

Compiled: 17:58:38 on 22/07/2018

Latest METAR/SPECI Reports

METAR LRBO 221800Z 17006KT 9999 BKN200 21/19 Q1008 BLU BLU=

Previous reports

METAR LRBO 221700Z VRB03KT 9999 BKN150 22/19 Q1007 BLU BLU=
METAR LRBO 221600Z 28006KT 9999 SCT050 OVC130 22/19 Q1007 BLU BLU=
METAR LRBO 221500Z 33009KT 9999 -SHRA BKN030CB OVC070 22/18 Q1008 BLU BLU=
METAR LRBO 221400Z 30010KT 8000 TSRA BKN030CB OVC070 23/19 Q1009 BLU BLU=

Latest TAF report

TAF LRBO 221700Z 2218/2318 30006KT 9999 SCT100 BECMG 2306/2308 04010KT SCT050 BECMG 2309/2311 SCT040CB BKN070 BECMG 2312/2314 5000 TSRA BKN030CB OVC050=

Valid WARNINGS

No valid warnings for LRBO